No se requiere un especial cuidado respecto a la situación meteorológica.   -   No hay avisos

Informes METAR

 

LEZL - Sevilla, Spain
Distancia de la estación: ENE 8km
Actualización: 22/02/2018 03:00
Despejado
Despejado
 Viento de ENE
Viento: ENE 11 km/h
Temperatura: 9°C
Sensación térmica: 7°C
Rocío: -1°C
Humedad: 50%
Barómetro: 1009 hPa
Nubes: Despejado
Visibilidad: 10 km
2018/02/22 02:00 LEZL 220200Z AUTO 07006KT 9999 NCD 09/M01 Q1009
LEMO - Morón, Spain
Distancia de la estación: SE 43km
Actualización: 22/02/2018 03:00
Despejado
Despejado
 Viento de ENE
Viento: ENE 17 km/h
Temperatura: 6°C
Sensación térmica: 3°C
Rocío: -2°C
Humedad: 57%
Barómetro: 1008 hPa
Resumen: Despejado
Visibilidad: mayor de 10 km
2018/02/22 02:00 LEMO 220200Z 06009KT CAVOK 06/M02 Q1008 NOSIG
LEJR - Jeréz, Spain
Distancia de la estación: S 71km
Actualización: 22/02/2018 03:30
Despejado
Despejado
 Viento de ENE
Viento: ENE 6 km/h
Temperatura: 6°C
Rocío: -1°C
Humedad: 61%
Barómetro: 1008 hPa
Nubes: Despejado
Visibilidad: 10 km
2018/02/22 02:30 LEJR 220230Z AUTO 06003KT 360V130 9999 NCD 06/M01 Q1008
 
LERT - Rota, Spain
Distancia de la estación: SSO 89km
Actualización: 22/02/2018 03:00
Despejado
Despejado
 Viento de NE
Viento: NE 7 km/h
Temperatura: 7°C
Sensación térmica: 6°C
Rocío: 4°C
Humedad: 81%
Barómetro: 1008 hPa
Resumen: Despejado
Visibilidad: mayor de 10 km
2018/02/22 02:00 LERT 220200Z 05004KT 360V070 CAVOK 07/04 Q1008 NOSIG
LEMG - Málaga, Spain
Distancia de la estación: ESE 157km
Actualización: 22/02/2018 03:00
Parcialmente nuboso
Parcialmente nuboso
 Viento de O
Viento: O 15 km/h
Barómetro: 1008 hPa
Nubes: Parcialmente nuboso
Visibilidad: 10 km
Detalles de las nubes: Poco nuboso 610 m
Parcialmente nuboso 1219 m
2018/02/22 02:00 LEMG 220200Z 28008KT 9999 FEW020 SCT040 ///// Q1008 NOSIG
LEBA - Córdoba, Spain
Distancia de la estación: ENE 115km
Actualización: 22/02/2018 03:00
Despejado
Despejado
 Viento de calm
Viento: Calma
Temperatura: 2°C
Rocío: -2°C
Humedad: 75%
Barómetro: 1009 hPa
Nubes: Despejado
Visibilidad: 10 km
2018/02/22 02:00 LEBA 220200Z AUTO 00000KT 9999 NCD 02/M02 Q1009
 
LEGR - Granada, Spain
Distancia de la estación: E 198km
Actualización: 22/02/2018 03:00
Despejado
Despejado
 Viento de variable
Viento: variable 2 km/h
Temperatura: 2°C
Rocío: -3°C
Humedad: 70%
Barómetro: 1008 hPa
Nubes: Despejado
Visibilidad: 10 km
2018/02/22 02:00 LEGR 220200Z AUTO VRB01KT 9999 NCD 02/M03 Q1008
LEAM - Almería, Spain
Distancia de la estación: E 326km
Actualización: 22/02/2018 03:00
Despejado
Despejado
 Viento de NE
Viento: NE 15 km/h
Temperatura: 10°C
Sensación térmica: 8°C
Rocío: 6°C
Humedad: 76%
Barómetro: 1008 hPa
Resumen: Despejado
Visibilidad: mayor de 10 km
2018/02/22 02:00 LEAM 220200Z AUTO 05008KT CAVOK 10/06 Q1008
LEMD - Madrid/Barajas, Spain
Distancia de la estación: NNE 402km
Actualización: 22/02/2018 03:00
Despejado
Despejado
 Viento de N
Viento: N 6 km/h
Temperatura: -1°C
Rocío: -8°C
Humedad: 59%
Barómetro: 1010 hPa
Resumen: Despejado
Visibilidad: mayor de 10 km
2018/02/22 02:00 LEMD 220200Z 36003KT 310V060 CAVOK M01/M08 Q1010 NOSIG
 
LEVD - Valladolid, Spain
Distancia de la estación: N 492km
Actualización: 21/02/2018 21:30
NOT Current
Despejado
Despejado
 Viento de ENE
Viento: ENE 30 km/h
Temperatura: 1°C
Sensación térmica: -5°C
Rocío: -4°C
Humedad: 70%
Barómetro: 1012 hPa
Resumen: Despejado
Visibilidad: mayor de 10 km
2018/02/21 20:30 LEVD 212030Z 07016KT CAVOK 01/M04 Q1012
LEBL - Barcelona, Spain
Distancia de la estación: NE 816km
Actualización: 22/02/2018 03:00
Poco nuboso
Poco nuboso
 Viento de ONO
Viento: ONO 9 km/h
Temperatura: 4°C
Sensación térmica: 2°C
Rocío: -1°C
Humedad: 70%
Barómetro: 1007 hPa
Nubes: Poco nuboso
Visibilidad: 10 km
Detalles de las nubes: Poco nuboso 762 m
2018/02/22 02:00 LEBL 220200Z 30005KT 9999 FEW025 04/M01 Q1007 NOSIG
LEVC - Valencia, Spain
Distancia de la estación: ENE 535km
Actualización: 22/02/2018 03:00
Poco nuboso
Poco nuboso
 Viento de OSO
Viento: OSO 9 km/h
Temperatura: 5°C
Sensación térmica: 3°C
Rocío: 0°C
Humedad: 70%
Barómetro: 1009 hPa
Nubes: Poco nuboso
Visibilidad: 10 km
Detalles de las nubes: Poco nuboso 762 m
2018/02/22 02:00 LEVC 220200Z 24005KT 200V260 9999 FEW025 05/00 Q1009 NOSIG